sensor_id;sensor_type;location;lat;lon;timestamp;temperature;humidity
21425;DHT22;10873;51.132;16.848;2023-02-22T00:00:10;24.00;50.90
21425;DHT22;10873;51.132;16.848;2023-02-22T00:03:03;24.00;50.90
21425;DHT22;10873;51.132;16.848;2023-02-22T00:05:30;24.00;50.80
21425;DHT22;10873;51.132;16.848;2023-02-22T00:07:56;24.00;50.80
21425;DHT22;10873;51.132;16.848;2023-02-22T00:10:24;23.90;50.80
21425;DHT22;10873;51.132;16.848;2023-02-22T00:12:51;23.90;50.70
21425;DHT22;10873;51.132;16.848;2023-02-22T00:15:21;23.90;50.70
21425;DHT22;10873;51.132;16.848;2023-02-22T00:17:47;23.90;50.60
21425;DHT22;10873;51.132;16.848;2023-02-22T00:20:15;23.90;50.60
21425;DHT22;10873;51.132;16.848;2023-02-22T00:22:46;23.90;50.60
21425;DHT22;10873;51.132;16.848;2023-02-22T00:25:14;23.90;50.50
21425;DHT22;10873;51.132;16.848;2023-02-22T00:27:43;23.80;50.70
21425;DHT22;10873;51.132;16.848;2023-02-22T00:30:14;23.80;50.50
21425;DHT22;10873;51.132;16.848;2023-02-22T00:32:44;23.80;50.50
21425;DHT22;10873;51.132;16.848;2023-02-22T00:35:10;23.80;50.40
21425;DHT22;10873;51.132;16.848;2023-02-22T00:37:37;23.80;50.40
21425;DHT22;10873;51.132;16.848;2023-02-22T00:40:07;23.80;50.40
21425;DHT22;10873;51.132;16.848;2023-02-22T00:42:33;23.80;50.40
21425;DHT22;10873;51.132;16.848;2023-02-22T00:45:01;23.80;50.40
21425;DHT22;10873;51.132;16.848;2023-02-22T00:47:28;23.80;50.40
21425;DHT22;10873;51.132;16.848;2023-02-22T00:49:55;23.80;50.40
21425;DHT22;10873;51.132;16.848;2023-02-22T00:52:21;23.80;50.40
21425;DHT22;10873;51.132;16.848;2023-02-22T00:54:47;23.80;50.40
21425;DHT22;10873;51.132;16.848;2023-02-22T00:57:14;23.80;50.50
21425;DHT22;10873;51.132;16.848;2023-02-22T00:59:40;23.80;50.50
21425;DHT22;10873;51.132;16.848;2023-02-22T01:02:07;23.80;50.50
21425;DHT22;10873;51.132;16.848;2023-02-22T01:04:34;23.80;50.50
21425;DHT22;10873;51.132;16.848;2023-02-22T01:07:00;23.80;50.40
21425;DHT22;10873;51.132;16.848;2023-02-22T01:09:26;23.80;50.40
21425;DHT22;10873;51.132;16.848;2023-02-22T01:11:53;23.80;50.30
21425;DHT22;10873;51.132;16.848;2023-02-22T01:14:23;23.80;50.20
21425;DHT22;10873;51.132;16.848;2023-02-22T01:16:51;23.80;50.20
21425;DHT22;10873;51.132;16.848;2023-02-22T01:19:19;23.90;50.30
21425;DHT22;10873;51.132;16.848;2023-02-22T01:21:45;23.80;50.30
21425;DHT22;10873;51.132;16.848;2023-02-22T01:24:12;23.80;50.20
21425;DHT22;10873;51.132;16.848;2023-02-22T01:26:41;23.80;50.20
21425;DHT22;10873;51.132;16.848;2023-02-22T01:29:07;23.80;50.20
21425;DHT22;10873;51.132;16.848;2023-02-22T01:31:33;23.80;50.10
21425;DHT22;10873;51.132;16.848;2023-02-22T01:33:59;23.80;50.00
21425;DHT22;10873;51.132;16.848;2023-02-22T01:36:26;23.80;50.00
21425;DHT22;10873;51.132;16.848;2023-02-22T01:38:52;23.80;50.00
21425;DHT22;10873;51.132;16.848;2023-02-22T01:41:18;23.80;49.90
21425;DHT22;10873;51.132;16.848;2023-02-22T01:43:45;23.80;49.90
21425;DHT22;10873;51.132;16.848;2023-02-22T01:46:22;23.80;49.90
21425;DHT22;10873;51.132;16.848;2023-02-22T01:48:51;23.70;49.90
21425;DHT22;10873;51.132;16.848;2023-02-22T01:51:20;23.70;49.80
21425;DHT22;10873;51.132;16.848;2023-02-22T01:53:50;23.80;49.80
21425;DHT22;10873;51.132;16.848;2023-02-22T01:56:18;23.80;49.80
21425;DHT22;10873;51.132;16.848;2023-02-22T01:58:48;23.70;49.60
21425;DHT22;10873;51.132;16.848;2023-02-22T02:01:15;23.70;49.50
21425;DHT22;10873;51.132;16.848;2023-02-22T02:03:43;23.70;49.50
21425;DHT22;10873;51.132;16.848;2023-02-22T02:06:14;23.70;49.50
21425;DHT22;10873;51.132;16.848;2023-02-22T02:08:47;23.70;49.40
21425;DHT22;10873;51.132;16.848;2023-02-22T02:11:20;23.70;49.40
21425;DHT22;10873;51.132;16.848;2023-02-22T02:13:49;23.70;50.00
21425;DHT22;10873;51.132;16.848;2023-02-22T02:16:15;23.70;49.40
21425;DHT22;10873;51.132;16.848;2023-02-22T02:18:42;23.70;49.40
21425;DHT22;10873;51.132;16.848;2023-02-22T02:21:39;23.70;49.40
21425;DHT22;10873;51.132;16.848;2023-02-22T02:24:37;23.70;49.40
21425;DHT22;10873;51.132;16.848;2023-02-22T02:27:17;23.70;49.30
21425;DHT22;10873;51.132;16.848;2023-02-22T02:30:26;23.70;49.20
21425;DHT22;10873;51.132;16.848;2023-02-22T02:33:04;23.70;49.10
21425;DHT22;10873;51.132;16.848;2023-02-22T02:35:38;23.70;49.10
21425;DHT22;10873;51.132;16.848;2023-02-22T02:38:12;23.70;49.00
21425;DHT22;10873;51.132;16.848;2023-02-22T02:40:47;23.70;49.10
21425;DHT22;10873;51.132;16.848;2023-02-22T02:43:20;23.70;49.10
21425;DHT22;10873;51.132;16.848;2023-02-22T02:45:55;23.70;49.10
21425;DHT22;10873;51.132;16.848;2023-02-22T02:48:27;23.70;49.10
21425;DHT22;10873;51.132;16.848;2023-02-22T02:50:56;23.70;49.10
21425;DHT22;10873;51.132;16.848;2023-02-22T02:53:26;23.70;49.10
21425;DHT22;10873;51.132;16.848;2023-02-22T02:55:53;23.70;49.00
21425;DHT22;10873;51.132;16.848;2023-02-22T02:58:22;23.70;49.00
21425;DHT22;10873;51.132;16.848;2023-02-22T03:00:51;23.70;49.00
21425;DHT22;10873;51.132;16.848;2023-02-22T03:03:42;23.70;49.00
21425;DHT22;10873;51.132;16.848;2023-02-22T03:06:36;23.70;49.10
21425;DHT22;10873;51.132;16.848;2023-02-22T03:09:12;23.70;49.00
21425;DHT22;10873;51.132;16.848;2023-02-22T03:11:48;23.70;49.00
21425;DHT22;10873;51.132;16.848;2023-02-22T03:14:21;23.70;49.00
21425;DHT22;10873;51.132;16.848;2023-02-22T03:16:56;23.70;49.00
21425;DHT22;10873;51.132;16.848;2023-02-22T03:19:31;23.70;49.10
21425;DHT22;10873;51.132;16.848;2023-02-22T03:22:02;23.70;49.00
21425;DHT22;10873;51.132;16.848;2023-02-22T03:24:40;23.70;49.00
21425;DHT22;10873;51.132;16.848;2023-02-22T03:27:12;23.70;49.00
21425;DHT22;10873;51.132;16.848;2023-02-22T03:29:42;23.70;49.10
21425;DHT22;10873;51.132;16.848;2023-02-22T03:32:20;23.70;49.00
21425;DHT22;10873;51.132;16.848;2023-02-22T03:34:55;23.70;49.10
21425;DHT22;10873;51.132;16.848;2023-02-22T03:37:26;23.70;49.10
21425;DHT22;10873;51.132;16.848;2023-02-22T03:39:54;23.70;49.20
21425;DHT22;10873;51.132;16.848;2023-02-22T03:42:24;23.70;49.20
21425;DHT22;10873;51.132;16.848;2023-02-22T03:44:59;23.70;49.20
21425;DHT22;10873;51.132;16.848;2023-02-22T03:47:33;23.70;49.10
21425;DHT22;10873;51.132;16.848;2023-02-22T03:50:04;23.70;49.10
21425;DHT22;10873;51.132;16.848;2023-02-22T03:52:33;23.70;49.20
21425;DHT22;10873;51.132;16.848;2023-02-22T03:55:00;23.70;49.20
21425;DHT22;10873;51.132;16.848;2023-02-22T03:57:31;23.70;49.10
21425;DHT22;10873;51.132;16.848;2023-02-22T03:59:58;23.70;49.20
21425;DHT22;10873;51.132;16.848;2023-02-22T04:02:25;23.70;49.20
21425;DHT22;10873;51.132;16.848;2023-02-22T04:04:54;23.70;49.20
21425;DHT22;10873;51.132;16.848;2023-02-22T04:07:23;23.70;49.30
21425;DHT22;10873;51.132;16.848;2023-02-22T04:10:11;23.70;49.30
21425;DHT22;10873;51.132;16.848;2023-02-22T04:12:38;23.80;49.30
21425;DHT22;10873;51.132;16.848;2023-02-22T04:15:05;23.80;49.30
21425;DHT22;10873;51.132;16.848;2023-02-22T04:17:32;23.70;49.30
21425;DHT22;10873;51.132;16.848;2023-02-22T04:19:58;23.80;49.30
21425;DHT22;10873;51.132;16.848;2023-02-22T04:22:26;23.80;49.30
21425;DHT22;10873;51.132;16.848;2023-02-22T04:24:52;23.80;49.30
21425;DHT22;10873;51.132;16.848;2023-02-22T04:27:18;23.70;49.30
21425;DHT22;10873;51.132;16.848;2023-02-22T04:29:44;23.70;49.30
21425;DHT22;10873;51.132;16.848;2023-02-22T04:32:10;23.70;49.30
21425;DHT22;10873;51.132;16.848;2023-02-22T04:34:36;23.70;49.40
21425;DHT22;10873;51.132;16.848;2023-02-22T04:37:02;23.70;49.40
21425;DHT22;10873;51.132;16.848;2023-02-22T04:39:29;23.80;49.50
21425;DHT22;10873;51.132;16.848;2023-02-22T04:41:56;23.70;49.40
21425;DHT22;10873;51.132;16.848;2023-02-22T04:44:21;23.80;49.50
21425;DHT22;10873;51.132;16.848;2023-02-22T04:46:48;23.70;49.40
21425;DHT22;10873;51.132;16.848;2023-02-22T04:49:14;23.80;49.40
21425;DHT22;10873;51.132;16.848;2023-02-22T04:51:40;23.70;49.40
21425;DHT22;10873;51.132;16.848;2023-02-22T04:54:07;23.70;49.40
21425;DHT22;10873;51.132;16.848;2023-02-22T04:56:34;23.70;49.40
21425;DHT22;10873;51.132;16.848;2023-02-22T04:59:00;23.80;49.40
21425;DHT22;10873;51.132;16.848;2023-02-22T05:01:30;23.80;49.40
21425;DHT22;10873;51.132;16.848;2023-02-22T05:04:00;23.70;49.40
21425;DHT22;10873;51.132;16.848;2023-02-22T05:06:26;23.80;49.50
21425;DHT22;10873;51.132;16.848;2023-02-22T05:08:52;23.70;49.50
21425;DHT22;10873;51.132;16.848;2023-02-22T05:11:18;23.80;49.50
21425;DHT22;10873;51.132;16.848;2023-02-22T05:13:46;23.80;49.50
21425;DHT22;10873;51.132;16.848;2023-02-22T05:16:12;23.70;49.40
21425;DHT22;10873;51.132;16.848;2023-02-22T05:18:38;23.70;49.50
21425;DHT22;10873;51.132;16.848;2023-02-22T05:21:04;23.80;49.50
21425;DHT22;10873;51.132;16.848;2023-02-22T05:23:32;23.70;49.50
21425;DHT22;10873;51.132;16.848;2023-02-22T05:25:58;23.80;50.10
21425;DHT22;10873;51.132;16.848;2023-02-22T05:28:24;23.70;51.20
21425;DHT22;10873;51.132;16.848;2023-02-22T05:30:52;23.70;52.20
21425;DHT22;10873;51.132;16.848;2023-02-22T05:33:18;23.70;52.10
21425;DHT22;10873;51.132;16.848;2023-02-22T05:35:44;23.70;51.90
21425;DHT22;10873;51.132;16.848;2023-02-22T05:38:12;23.70;51.70
21425;DHT22;10873;51.132;16.848;2023-02-22T05:40:40;23.70;51.50
21425;DHT22;10873;51.132;16.848;2023-02-22T05:43:07;23.80;51.30
21425;DHT22;10873;51.132;16.848;2023-02-22T05:45:34;23.70;51.10
21425;DHT22;10873;51.132;16.848;2023-02-22T05:48:02;23.80;51.00
21425;DHT22;10873;51.132;16.848;2023-02-22T05:50:28;23.80;50.80
21425;DHT22;10873;51.132;16.848;2023-02-22T05:52:55;23.80;50.60
21425;DHT22;10873;51.132;16.848;2023-02-22T05:55:22;23.80;50.60
21425;DHT22;10873;51.132;16.848;2023-02-22T05:57:48;23.80;50.50
21425;DHT22;10873;51.132;16.848;2023-02-22T06:00:17;23.80;50.30
21425;DHT22;10873;51.132;16.848;2023-02-22T06:02:43;23.80;50.30
21425;DHT22;10873;51.132;16.848;2023-02-22T06:05:11;23.80;50.60
21425;DHT22;10873;51.132;16.848;2023-02-22T06:07:37;23.80;50.60
21425;DHT22;10873;51.132;16.848;2023-02-22T06:10:04;23.80;50.50
21425;DHT22;10873;51.132;16.848;2023-02-22T06:12:30;23.70;50.40
21425;DHT22;10873;51.132;16.848;2023-02-22T06:14:56;23.70;50.30
21425;DHT22;10873;51.132;16.848;2023-02-22T06:17:22;23.80;50.40
21425;DHT22;10873;51.132;16.848;2023-02-22T06:19:48;23.80;50.30
21425;DHT22;10873;51.132;16.848;2023-02-22T06:22:18;23.70;50.30
21425;DHT22;10873;51.132;16.848;2023-02-22T06:24:45;23.70;50.20
21425;DHT22;10873;51.132;16.848;2023-02-22T06:27:11;23.80;50.30
21425;DHT22;10873;51.132;16.848;2023-02-22T06:29:37;23.80;50.20
21425;DHT22;10873;51.132;16.848;2023-02-22T06:32:03;23.80;50.30
21425;DHT22;10873;51.132;16.848;2023-02-22T06:34:29;23.80;50.20
21425;DHT22;10873;51.132;16.848;2023-02-22T06:36:55;23.80;50.20
21425;DHT22;10873;51.132;16.848;2023-02-22T06:39:23;23.80;50.20
21425;DHT22;10873;51.132;16.848;2023-02-22T06:41:50;23.80;50.20
21425;DHT22;10873;51.132;16.848;2023-02-22T06:44:16;23.80;50.20
21425;DHT22;10873;51.132;16.848;2023-02-22T06:46:46;23.90;50.20
21425;DHT22;10873;51.132;16.848;2023-02-22T06:49:13;23.80;50.20
21425;DHT22;10873;51.132;16.848;2023-02-22T06:51:39;23.80;50.90
21425;DHT22;10873;51.132;16.848;2023-02-22T06:54:05;23.80;50.20
21425;DHT22;10873;51.132;16.848;2023-02-22T06:56:32;23.90;50.20
21425;DHT22;10873;51.132;16.848;2023-02-22T06:58:59;23.90;50.20
21425;DHT22;10873;51.132;16.848;2023-02-22T07:01:26;23.90;50.20
21425;DHT22;10873;51.132;16.848;2023-02-22T07:03:53;23.80;50.10
21425;DHT22;10873;51.132;16.848;2023-02-22T07:06:19;23.90;50.20
21425;DHT22;10873;51.132;16.848;2023-02-22T07:08:45;23.90;50.20
21425;DHT22;10873;51.132;16.848;2023-02-22T07:11:11;23.80;50.10
21425;DHT22;10873;51.132;16.848;2023-02-22T07:13:38;23.80;50.20
21425;DHT22;10873;51.132;16.848;2023-02-22T07:16:05;23.80;50.10
21425;DHT22;10873;51.132;16.848;2023-02-22T07:18:31;23.80;50.10
21425;DHT22;10873;51.132;16.848;2023-02-22T07:20:57;23.80;50.10
21425;DHT22;10873;51.132;16.848;2023-02-22T07:23:24;23.70;50.10
21425;DHT22;10873;51.132;16.848;2023-02-22T07:25:50;23.70;50.20
21425;DHT22;10873;51.132;16.848;2023-02-22T07:28:16;23.70;50.20
21425;DHT22;10873;51.132;16.848;2023-02-22T07:30:43;23.70;50.20
21425;DHT22;10873;51.132;16.848;2023-02-22T07:33:11;23.80;50.30
21425;DHT22;10873;51.132;16.848;2023-02-22T07:35:42;23.80;50.30
21425;DHT22;10873;51.132;16.848;2023-02-22T07:38:09;23.80;50.30
21425;DHT22;10873;51.132;16.848;2023-02-22T07:40:35;23.80;50.30
21425;DHT22;10873;51.132;16.848;2023-02-22T07:43:04;23.80;50.30
21425;DHT22;10873;51.132;16.848;2023-02-22T07:45:32;23.80;50.30
21425;DHT22;10873;51.132;16.848;2023-02-22T07:48:01;23.80;50.20
21425;DHT22;10873;51.132;16.848;2023-02-22T07:50:29;23.80;50.20
21425;DHT22;10873;51.132;16.848;2023-02-22T07:52:58;23.80;50.20
21425;DHT22;10873;51.132;16.848;2023-02-22T07:55:26;23.80;50.20
21425;DHT22;10873;51.132;16.848;2023-02-22T07:57:55;23.80;50.10
21425;DHT22;10873;51.132;16.848;2023-02-22T08:00:22;23.80;50.20
21425;DHT22;10873;51.132;16.848;2023-02-22T08:02:49;23.80;50.20
21425;DHT22;10873;51.132;16.848;2023-02-22T08:05:17;23.80;50.20
21425;DHT22;10873;51.132;16.848;2023-02-22T08:07:43;23.80;50.20
21425;DHT22;10873;51.132;16.848;2023-02-22T08:10:10;23.70;50.20
21425;DHT22;10873;51.132;16.848;2023-02-22T08:12:38;23.70;50.30
21425;DHT22;10873;51.132;16.848;2023-02-22T08:15:06;23.80;50.40
21425;DHT22;10873;51.132;16.848;2023-02-22T08:17:33;23.70;50.30
21425;DHT22;10873;51.132;16.848;2023-02-22T08:19:59;23.80;50.40
21425;DHT22;10873;51.132;16.848;2023-02-22T08:22:26;23.80;50.40
21425;DHT22;10873;51.132;16.848;2023-02-22T08:24:53;23.80;50.30
21425;DHT22;10873;51.132;16.848;2023-02-22T08:27:22;23.80;50.30
21425;DHT22;10873;51.132;16.848;2023-02-22T08:29:49;23.80;50.20
21425;DHT22;10873;51.132;16.848;2023-02-22T08:32:15;23.90;50.20
21425;DHT22;10873;51.132;16.848;2023-02-22T08:34:42;23.90;50.10
21425;DHT22;10873;51.132;16.848;2023-02-22T08:37:08;23.90;50.10
21425;DHT22;10873;51.132;16.848;2023-02-22T08:39:35;23.90;50.00
21425;DHT22;10873;51.132;16.848;2023-02-22T08:42:02;23.80;49.90
21425;DHT22;10873;51.132;16.848;2023-02-22T08:44:27;23.80;49.90
21425;DHT22;10873;51.132;16.848;2023-02-22T08:46:54;23.80;49.80
21425;DHT22;10873;51.132;16.848;2023-02-22T08:49:20;23.90;49.80
21425;DHT22;10873;51.132;16.848;2023-02-22T08:51:46;23.80;49.80
21425;DHT22;10873;51.132;16.848;2023-02-22T08:54:12;23.80;49.70
21425;DHT22;10873;51.132;16.848;2023-02-22T08:56:39;23.80;49.70
21425;DHT22;10873;51.132;16.848;2023-02-22T08:59:05;23.80;49.70
21425;DHT22;10873;51.132;16.848;2023-02-22T09:01:31;23.80;49.70
21425;DHT22;10873;51.132;16.848;2023-02-22T09:03:59;23.80;49.60
21425;DHT22;10873;51.132;16.848;2023-02-22T09:06:25;23.80;49.60
21425;DHT22;10873;51.132;16.848;2023-02-22T09:08:51;23.80;49.50
21425;DHT22;10873;51.132;16.848;2023-02-22T09:11:17;23.90;49.50
21425;DHT22;10873;51.132;16.848;2023-02-22T09:13:45;23.80;49.50
21425;DHT22;10873;51.132;16.848;2023-02-22T09:16:11;23.90;49.40
21425;DHT22;10873;51.132;16.848;2023-02-22T09:18:37;23.90;49.40
21425;DHT22;10873;51.132;16.848;2023-02-22T09:21:04;23.90;49.30
21425;DHT22;10873;51.132;16.848;2023-02-22T09:23:30;23.90;49.30
21425;DHT22;10873;51.132;16.848;2023-02-22T09:25:56;24.00;49.30
21425;DHT22;10873;51.132;16.848;2023-02-22T09:28:24;23.90;49.20
21425;DHT22;10873;51.132;16.848;2023-02-22T09:30:52;24.00;49.20
21425;DHT22;10873;51.132;16.848;2023-02-22T09:33:19;24.00;49.10
21425;DHT22;10873;51.132;16.848;2023-02-22T09:35:48;24.00;49.10
21425;DHT22;10873;51.132;16.848;2023-02-22T09:38:17;24.00;49.00
21425;DHT22;10873;51.132;16.848;2023-02-22T09:40:48;23.90;49.00
21425;DHT22;10873;51.132;16.848;2023-02-22T09:43:23;23.90;48.90
21425;DHT22;10873;51.132;16.848;2023-02-22T09:46:04;23.90;48.80
21425;DHT22;10873;51.132;16.848;2023-02-22T09:48:33;23.90;48.80
21425;DHT22;10873;51.132;16.848;2023-02-22T09:51:02;23.90;48.80
21425;DHT22;10873;51.132;16.848;2023-02-22T09:53:38;23.90;48.70
21425;DHT22;10873;51.132;16.848;2023-02-22T09:56:08;23.90;48.70
21425;DHT22;10873;51.132;16.848;2023-02-22T09:58:38;23.90;48.70
21425;DHT22;10873;51.132;16.848;2023-02-22T10:01:21;23.90;48.80
21425;DHT22;10873;51.132;16.848;2023-02-22T10:03:52;23.90;48.80
21425;DHT22;10873;51.132;16.848;2023-02-22T10:06:23;23.90;48.80
21425;DHT22;10873;51.132;16.848;2023-02-22T10:08:50;23.90;48.70
21425;DHT22;10873;51.132;16.848;2023-02-22T10:11:34;23.90;48.70
21425;DHT22;10873;51.132;16.848;2023-02-22T10:14:17;23.90;48.60
21425;DHT22;10873;51.132;16.848;2023-02-22T10:16:54;24.00;48.60
21425;DHT22;10873;51.132;16.848;2023-02-22T10:19:26;24.00;48.50
21425;DHT22;10873;51.132;16.848;2023-02-22T10:22:20;24.00;48.40
21425;DHT22;10873;51.132;16.848;2023-02-22T10:24:57;24.00;48.40
21425;DHT22;10873;51.132;16.848;2023-02-22T10:27:29;24.00;48.20
21425;DHT22;10873;51.132;16.848;2023-02-22T10:29:59;24.00;48.20
21425;DHT22;10873;51.132;16.848;2023-02-22T10:32:35;24.00;48.20
21425;DHT22;10873;51.132;16.848;2023-02-22T10:35:08;24.00;48.10
21425;DHT22;10873;51.132;16.848;2023-02-22T10:37:41;24.00;48.10
21425;DHT22;10873;51.132;16.848;2023-02-22T10:40:12;24.00;48.10
21425;DHT22;10873;51.132;16.848;2023-02-22T10:42:39;24.00;48.10
21425;DHT22;10873;51.132;16.848;2023-02-22T10:45:13;24.00;48.10
21425;DHT22;10873;51.132;16.848;2023-02-22T10:47:42;24.00;48.10
21425;DHT22;10873;51.132;16.848;2023-02-22T10:50:12;23.90;48.10
21425;DHT22;10873;51.132;16.848;2023-02-22T10:52:39;23.90;48.10
21425;DHT22;10873;51.132;16.848;2023-02-22T10:55:11;23.90;48.10
21425;DHT22;10873;51.132;16.848;2023-02-22T10:57:39;23.90;48.10
21425;DHT22;10873;51.132;16.848;2023-02-22T11:00:15;24.00;48.10
21425;DHT22;10873;51.132;16.848;2023-02-22T11:02:51;24.00;48.10
21425;DHT22;10873;51.132;16.848;2023-02-22T11:05:27;24.00;48.10
21425;DHT22;10873;51.132;16.848;2023-02-22T11:08:13;24.00;48.00
21425;DHT22;10873;51.132;16.848;2023-02-22T11:10:40;24.00;48.00
21425;DHT22;10873;51.132;16.848;2023-02-22T11:13:16;24.00;47.90
21425;DHT22;10873;51.132;16.848;2023-02-22T11:15:43;24.00;47.80
21425;DHT22;10873;51.132;16.848;2023-02-22T11:18:22;24.00;47.80
21425;DHT22;10873;51.132;16.848;2023-02-22T11:21:02;24.00;47.70
21425;DHT22;10873;51.132;16.848;2023-02-22T11:23:28;24.00;47.70
21425;DHT22;10873;51.132;16.848;2023-02-22T11:26:05;24.00;47.70
21425;DHT22;10873;51.132;16.848;2023-02-22T11:28:33;24.00;47.70
21425;DHT22;10873;51.132;16.848;2023-02-22T11:31:10;24.00;47.80
21425;DHT22;10873;51.132;16.848;2023-02-22T11:33:38;23.90;47.80
21425;DHT22;10873;51.132;16.848;2023-02-22T11:36:05;24.00;47.90
21425;DHT22;10873;51.132;16.848;2023-02-22T11:38:40;24.00;47.90
21425;DHT22;10873;51.132;16.848;2023-02-22T11:41:19;24.00;47.90
21425;DHT22;10873;51.132;16.848;2023-02-22T11:43:50;24.00;47.90
21425;DHT22;10873;51.132;16.848;2023-02-22T11:46:18;24.00;47.90
21425;DHT22;10873;51.132;16.848;2023-02-22T11:48:56;24.00;47.80
21425;DHT22;10873;51.132;16.848;2023-02-22T11:51:33;24.00;47.70
21425;DHT22;10873;51.132;16.848;2023-02-22T11:54:15;24.00;47.70
21425;DHT22;10873;51.132;16.848;2023-02-22T11:56:59;24.00;47.70
21425;DHT22;10873;51.132;16.848;2023-02-22T11:59:36;24.00;47.70
21425;DHT22;10873;51.132;16.848;2023-02-22T12:02:21;24.00;47.70
21425;DHT22;10873;51.132;16.848;2023-02-22T12:05:07;24.00;47.60
21425;DHT22;10873;51.132;16.848;2023-02-22T12:07:50;24.00;47.60
21425;DHT22;10873;51.132;16.848;2023-02-22T12:10:28;24.10;47.70
21425;DHT22;10873;51.132;16.848;2023-02-22T12:13:07;24.10;47.70
21425;DHT22;10873;51.132;16.848;2023-02-22T12:15:38;24.00;47.60
21425;DHT22;10873;51.132;16.848;2023-02-22T12:18:09;24.00;47.60
21425;DHT22;10873;51.132;16.848;2023-02-22T12:20:43;24.10;47.60
21425;DHT22;10873;51.132;16.848;2023-02-22T12:23:16;24.00;47.60
21425;DHT22;10873;51.132;16.848;2023-02-22T12:25:54;24.00;47.60
21425;DHT22;10873;51.132;16.848;2023-02-22T12:28:27;24.00;47.60
21425;DHT22;10873;51.132;16.848;2023-02-22T12:31:02;24.00;47.60
21425;DHT22;10873;51.132;16.848;2023-02-22T12:33:37;24.00;47.60
21425;DHT22;10873;51.132;16.848;2023-02-22T12:36:11;24.00;47.70
21425;DHT22;10873;51.132;16.848;2023-02-22T12:38:42;24.00;47.60
21425;DHT22;10873;51.132;16.848;2023-02-22T12:41:15;24.00;47.60
21425;DHT22;10873;51.132;16.848;2023-02-22T12:43:46;24.00;47.60
21425;DHT22;10873;51.132;16.848;2023-02-22T12:46:16;24.00;47.60
21425;DHT22;10873;51.132;16.848;2023-02-22T12:48:47;24.00;47.70
21425;DHT22;10873;51.132;16.848;2023-02-22T12:51:26;24.00;47.70
21425;DHT22;10873;51.132;16.848;2023-02-22T12:54:00;24.00;47.70
21425;DHT22;10873;51.132;16.848;2023-02-22T12:56:31;24.00;47.70
21425;DHT22;10873;51.132;16.848;2023-02-22T12:59:02;24.10;47.70
21425;DHT22;10873;51.132;16.848;2023-02-22T13:01:36;24.10;47.70
21425;DHT22;10873;51.132;16.848;2023-02-22T13:04:03;24.10;47.70
21425;DHT22;10873;51.132;16.848;2023-02-22T13:06:39;24.10;47.70
21425;DHT22;10873;51.132;16.848;2023-02-22T13:09:24;24.20;47.70
21425;DHT22;10873;51.132;16.848;2023-02-22T13:12:03;24.20;47.70
21425;DHT22;10873;51.132;16.848;2023-02-22T13:14:40;24.20;47.70
21425;DHT22;10873;51.132;16.848;2023-02-22T13:17:14;24.10;47.60
21425;DHT22;10873;51.132;16.848;2023-02-22T13:19:53;24.20;47.60
21425;DHT22;10873;51.132;16.848;2023-02-22T13:22:27;24.20;47.50
21425;DHT22;10873;51.132;16.848;2023-02-22T13:25:01;24.20;47.40
21425;DHT22;10873;51.132;16.848;2023-02-22T13:27:36;24.20;47.40
21425;DHT22;10873;51.132;16.848;2023-02-22T13:30:05;24.20;47.40
21425;DHT22;10873;51.132;16.848;2023-02-22T13:36:14;24.20;47.30
21425;DHT22;10873;51.132;16.848;2023-02-22T13:39:10;24.20;47.30
21425;DHT22;10873;51.132;16.848;2023-02-22T13:41:55;24.20;47.40
21425;DHT22;10873;51.132;16.848;2023-02-22T13:44:50;24.20;47.30
21425;DHT22;10873;51.132;16.848;2023-02-22T13:47:37;24.20;47.30
21425;DHT22;10873;51.132;16.848;2023-02-22T13:53:21;24.20;47.20
21425;DHT22;10873;51.132;16.848;2023-02-22T13:55:54;24.20;47.10
21425;DHT22;10873;51.132;16.848;2023-02-22T13:58:22;24.20;47.10
21425;DHT22;10873;51.132;16.848;2023-02-22T14:00:50;24.20;47.00
21425;DHT22;10873;51.132;16.848;2023-02-22T14:03:32;24.20;47.10
21425;DHT22;10873;51.132;16.848;2023-02-22T14:06:02;24.20;47.00
21425;DHT22;10873;51.132;16.848;2023-02-22T14:08:45;24.20;46.90
21425;DHT22;10873;51.132;16.848;2023-02-22T14:14:20;24.20;46.90
21425;DHT22;10873;51.132;16.848;2023-02-22T14:17:14;24.20;46.90
21425;DHT22;10873;51.132;16.848;2023-02-22T14:19:41;24.10;47.10
21425;DHT22;10873;51.132;16.848;2023-02-22T14:22:07;24.10;47.40
21425;DHT22;10873;51.132;16.848;2023-02-22T14:24:42;24.10;47.70
21425;DHT22;10873;51.132;16.848;2023-02-22T14:27:10;24.10;47.80
21425;DHT22;10873;51.132;16.848;2023-02-22T14:29:48;24.10;48.00
21425;DHT22;10873;51.132;16.848;2023-02-22T14:32:15;24.10;48.10
21425;DHT22;10873;51.132;16.848;2023-02-22T14:34:50;24.10;48.20
21425;DHT22;10873;51.132;16.848;2023-02-22T14:37:22;24.10;48.30
21425;DHT22;10873;51.132;16.848;2023-02-22T14:39:51;24.10;48.40
21425;DHT22;10873;51.132;16.848;2023-02-22T14:42:22;24.10;48.40
21425;DHT22;10873;51.132;16.848;2023-02-22T14:44:55;24.10;48.40
21425;DHT22;10873;51.132;16.848;2023-02-22T14:47:26;24.10;48.40
21425;DHT22;10873;51.132;16.848;2023-02-22T14:49:59;24.20;48.30
21425;DHT22;10873;51.132;16.848;2023-02-22T14:52:29;24.20;48.20
21425;DHT22;10873;51.132;16.848;2023-02-22T14:55:11;24.20;48.20
21425;DHT22;10873;51.132;16.848;2023-02-22T14:57:45;24.20;48.20
21425;DHT22;10873;51.132;16.848;2023-02-22T15:00:18;24.20;48.20
21425;DHT22;10873;51.132;16.848;2023-02-22T15:02:45;24.20;48.10
21425;DHT22;10873;51.132;16.848;2023-02-22T15:05:12;24.20;47.90
21425;DHT22;10873;51.132;16.848;2023-02-22T15:07:49;24.20;47.70
21425;DHT22;10873;51.132;16.848;2023-02-22T15:10:20;24.20;47.70
21425;DHT22;10873;51.132;16.848;2023-02-22T15:12:54;24.20;47.60
21425;DHT22;10873;51.132;16.848;2023-02-22T15:15:39;24.20;47.50
21425;DHT22;10873;51.132;16.848;2023-02-22T15:18:18;24.20;47.50
21425;DHT22;10873;51.132;16.848;2023-02-22T15:20:45;24.20;47.40
21425;DHT22;10873;51.132;16.848;2023-02-22T15:23:14;24.20;47.30
21425;DHT22;10873;51.132;16.848;2023-02-22T15:25:46;24.20;47.20
21425;DHT22;10873;51.132;16.848;2023-02-22T15:28:14;24.20;47.20
21425;DHT22;10873;51.132;16.848;2023-02-22T15:30:43;24.20;47.10
21425;DHT22;10873;51.132;16.848;2023-02-22T15:33:11;24.10;47.00
21425;DHT22;10873;51.132;16.848;2023-02-22T15:35:38;24.10;47.00
21425;DHT22;10873;51.132;16.848;2023-02-22T15:38:10;24.10;47.00
21425;DHT22;10873;51.132;16.848;2023-02-22T15:40:40;24.10;47.00
21425;DHT22;10873;51.132;16.848;2023-02-22T15:43:16;24.10;46.90
21425;DHT22;10873;51.132;16.848;2023-02-22T15:45:44;24.10;46.90